createdAt,value
2024-04-18T00:01:16.403Z,3.50
2024-04-18T00:03:44.637Z,3.70
2024-04-18T00:06:12.125Z,3.60
2024-04-18T00:08:39.611Z,3.10
2024-04-18T00:11:25.436Z,4.20
2024-04-18T00:13:52.901Z,3.90
2024-04-18T00:16:35.508Z,3.30
2024-04-18T00:19:18.079Z,4.00
2024-04-18T00:21:58.653Z,3.60
2024-04-18T00:24:29.096Z,3.40
2024-04-18T00:26:56.771Z,4.40
2024-04-18T00:29:36.936Z,3.60
2024-04-18T00:32:16.559Z,3.40
2024-04-18T00:35:02.352Z,3.70
2024-04-18T00:37:35.653Z,3.90
2024-04-18T00:40:03.089Z,3.80
2024-04-18T00:42:37.346Z,3.90
2024-04-18T00:45:07.891Z,3.80
2024-04-18T00:47:48.490Z,3.90
2024-04-18T00:50:16.842Z,3.70
2024-04-18T00:52:44.228Z,3.80
2024-04-18T00:55:28.188Z,4.40
2024-04-18T00:58:11.436Z,3.90
2024-04-18T01:00:42.237Z,4.00
2024-04-18T01:03:28.358Z,4.40
2024-04-18T01:06:08.603Z,4.60
2024-04-18T01:08:55.083Z,4.30
2024-04-18T01:11:32.042Z,4.60
2024-04-18T01:14:11.998Z,4.70
2024-04-18T01:16:58.112Z,4.20
2024-04-18T01:19:25.498Z,4.90
2024-04-18T01:21:53.432Z,4.00
2024-04-18T01:24:20.947Z,4.70
2024-04-18T01:26:48.325Z,4.20
2024-04-18T01:29:15.739Z,4.10
2024-04-18T01:32:01.944Z,4.30
2024-04-18T01:34:29.394Z,4.10
2024-04-18T01:37:15.329Z,4.10
2024-04-18T01:39:44.610Z,4.30
2024-04-18T01:42:12.353Z,3.90
2024-04-18T01:44:43.434Z,4.70
2024-04-18T01:47:29.171Z,4.40
2024-04-18T01:50:09.245Z,3.80
2024-04-18T01:52:37.134Z,3.70
2024-04-18T01:55:05.305Z,4.50
2024-04-18T01:57:39.816Z,4.50
2024-04-18T02:00:25.440Z,4.20
2024-04-18T02:02:52.906Z,4.20
2024-04-18T02:05:38.918Z,3.80
2024-04-18T02:08:15.563Z,4.60
2024-04-18T02:10:45.600Z,4.10
2024-04-18T02:13:36.294Z,3.60
2024-04-18T02:16:04.433Z,4.20
2024-04-18T02:18:50.590Z,4.40
2024-04-18T02:21:17.999Z,5.10
2024-04-18T02:23:52.328Z,3.80
2024-04-18T02:26:20.591Z,4.50
2024-04-18T02:28:47.935Z,5.40
2024-04-18T02:31:18.164Z,3.90
2024-04-18T02:33:52.779Z,4.70
2024-04-18T02:36:20.857Z,4.50
2024-04-18T02:38:48.243Z,4.60
2024-04-18T02:41:15.601Z,4.00
2024-04-18T02:43:50.901Z,3.70
2024-04-18T02:46:18.432Z,4.80
2024-04-18T02:49:04.548Z,4.60
2024-04-18T02:51:32.151Z,4.50
2024-04-18T02:54:14.804Z,4.80
2024-04-18T02:56:42.328Z,4.30
2024-04-18T02:59:11.789Z,4.60
2024-04-18T03:01:51.495Z,4.40
2024-04-18T03:04:18.933Z,4.70
2024-04-18T03:06:46.741Z,4.90
2024-04-18T03:09:14.826Z,4.20
2024-04-18T03:11:54.554Z,4.60
2024-04-18T03:14:43.271Z,4.50
2024-04-18T03:17:10.753Z,4.40
2024-04-18T03:19:56.721Z,4.60
2024-04-18T03:22:27.179Z,4.50
2024-04-18T03:25:00.995Z,4.60
2024-04-18T03:27:31.657Z,4.80
2024-04-18T03:29:59.134Z,4.80
2024-04-18T03:32:36.557Z,3.80
2024-04-18T03:35:04.780Z,3.90
2024-04-18T03:37:32.912Z,4.70
2024-04-18T03:40:21.149Z,3.90
2024-04-18T03:43:03.885Z,4.60
2024-04-18T03:45:31.497Z,4.30
2024-04-18T03:48:17.518Z,4.50
2024-04-18T03:50:45.034Z,4.50
2024-04-18T03:53:21.877Z,4.20
2024-04-18T03:56:09.627Z,3.90
2024-04-18T03:58:37.063Z,3.90
2024-04-18T04:01:04.705Z,4.20
2024-04-18T04:03:32.352Z,4.50
2024-04-18T04:05:59.801Z,4.60
2024-04-18T04:08:27.213Z,4.70
2024-04-18T04:11:13.856Z,4.20
2024-04-18T04:13:41.304Z,4.10
2024-04-18T04:16:19.578Z,4.30
2024-04-18T04:18:51.531Z,4.30
2024-04-18T04:21:38.464Z,3.30
2024-04-18T04:24:06.393Z,4.40
2024-04-18T04:26:52.312Z,3.90
2024-04-18T04:29:20.791Z,4.70
2024-04-18T04:31:48.198Z,3.90
2024-04-18T04:34:15.650Z,4.10
2024-04-18T04:36:43.123Z,3.80
2024-04-18T04:39:10.970Z,4.50
2024-04-18T04:41:41.306Z,4.50
2024-04-18T04:44:08.694Z,4.10
2024-04-18T04:46:50.045Z,4.00
2024-04-18T04:49:18.724Z,5.70
2024-04-18T04:52:02.100Z,5.00
2024-04-18T04:54:45.237Z,3.90
2024-04-18T04:57:13.214Z,4.50
2024-04-18T04:59:40.931Z,4.70
2024-04-18T05:02:08.355Z,4.70
2024-04-18T05:04:51.241Z,4.20
2024-04-18T05:07:31.422Z,4.50
2024-04-18T05:09:58.929Z,4.80
2024-04-18T05:12:26.328Z,4.70
2024-04-18T05:14:53.736Z,3.90
2024-04-18T05:17:53.118Z,4.50
2024-04-18T05:20:20.557Z,3.90
2024-04-18T05:22:48.244Z,4.40
2024-04-18T05:25:15.721Z,4.40
2024-04-18T05:27:54.340Z,4.60
2024-04-18T05:30:58.941Z,4.80
2024-04-18T05:33:26.459Z,4.50
2024-04-18T05:35:53.927Z,4.10
2024-04-18T05:38:21.384Z,4.80
2024-04-18T05:40:49.635Z,4.10
2024-04-18T05:43:17.066Z,5.10
2024-04-18T05:45:48.154Z,5.10
2024-04-18T05:48:15.691Z,4.10
2024-04-18T05:50:43.220Z,4.40
2024-04-18T05:53:21.304Z,4.50
2024-04-18T05:55:54.619Z,5.00
2024-04-18T05:58:22.023Z,4.10
2024-04-18T06:00:55.540Z,5.50
2024-04-18T06:03:23.923Z,4.80
2024-04-18T06:05:53.330Z,4.20
2024-04-18T06:08:20.727Z,4.10
2024-04-18T06:10:48.245Z,4.70
2024-04-18T06:13:19.611Z,4.80
2024-04-18T06:15:48.504Z,4.70
2024-04-18T06:18:16.161Z,5.00
2024-04-18T06:20:47.067Z,4.90
2024-04-18T06:23:14.775Z,3.80
2024-04-18T06:25:42.556Z,3.80
2024-04-18T06:28:13.422Z,3.90
2024-04-18T06:30:41.180Z,3.70
2024-04-18T06:33:11.738Z,4.40
2024-04-18T06:35:39.399Z,4.20
2024-04-18T06:38:07.752Z,3.50
2024-04-18T06:40:35.306Z,3.90
2024-04-18T06:43:02.809Z,4.50
2024-04-18T06:45:30.482Z,4.10
2024-04-18T06:47:58.111Z,4.10
2024-04-18T06:50:27.588Z,4.60
2024-04-18T06:52:55.226Z,3.70
2024-04-18T06:55:26.062Z,5.50
2024-04-18T06:57:53.525Z,4.50
2024-04-18T07:00:21.091Z,4.30
2024-04-18T07:02:48.561Z,5.50
2024-04-18T07:05:34.789Z,5.10
2024-04-18T07:08:20.442Z,5.00
2024-04-18T07:10:47.981Z,5.60
2024-04-18T07:13:32.756Z,4.90
2024-04-18T07:18:50.035Z,4.40
2024-04-18T07:21:17.678Z,4.80
2024-04-18T07:23:45.364Z,3.70
2024-04-18T07:26:13.200Z,4.10
2024-04-18T07:28:40.778Z,4.10
2024-04-18T07:31:08.333Z,5.50
2024-04-18T07:33:35.923Z,5.40
2024-04-18T07:36:16.512Z,5.30
2024-04-18T07:38:43.931Z,4.70
2024-04-18T07:41:11.378Z,5.50
2024-04-18T07:43:38.909Z,3.60
2024-04-18T07:46:06.639Z,3.20
2024-04-18T07:48:34.116Z,3.60
2024-04-18T07:51:01.603Z,3.60
2024-04-18T07:53:28.989Z,3.50
2024-04-18T07:55:56.484Z,3.20
2024-04-18T07:58:24.884Z,3.70
2024-04-18T08:00:54.988Z,4.10
2024-04-18T08:03:25.421Z,3.40
2024-04-18T08:05:56.339Z,4.30
2024-04-18T08:08:28.760Z,4.10
2024-04-18T08:13:32.776Z,3.80
2024-04-18T08:16:03.193Z,4.00
2024-04-18T08:18:31.831Z,3.60
2024-04-18T08:21:00.243Z,4.30
2024-04-18T08:23:28.019Z,3.60
2024-04-18T08:25:55.520Z,3.40
2024-04-18T08:28:23.061Z,3.70
2024-04-18T08:30:51.875Z,3.90
2024-04-18T08:33:19.482Z,3.40
2024-04-18T08:35:47.150Z,4.40
2024-04-18T08:38:14.927Z,3.50
2024-04-18T08:40:45.725Z,3.30
2024-04-18T08:45:41.834Z,4.10
2024-04-18T08:48:09.473Z,3.50
2024-04-18T08:50:38.320Z,3.30
2024-04-18T08:53:05.989Z,3.60
2024-04-18T08:55:34.000Z,3.40
2024-04-18T08:58:08.247Z,2.90
2024-04-18T09:00:36.804Z,3.30
2024-04-18T09:03:04.637Z,3.30
2024-04-18T09:05:33.145Z,3.10
2024-04-18T09:08:01.153Z,3.10
2024-04-18T09:10:32.264Z,4.00
2024-04-18T09:13:04.077Z,4.50
2024-04-18T09:15:34.415Z,4.00
2024-04-18T09:18:02.824Z,3.50
2024-04-18T09:20:31.892Z,10.90
2024-04-18T09:22:59.430Z,6.60
2024-04-18T09:25:27.173Z,3.60
2024-04-18T09:27:54.734Z,3.20
2024-04-18T09:30:22.356Z,3.20
2024-04-18T09:32:49.994Z,2.80
2024-04-18T09:35:17.744Z,3.90
2024-04-18T09:37:52.742Z,3.50
2024-04-18T09:40:24.843Z,3.30
2024-04-18T09:42:55.151Z,2.70
2024-04-18T09:45:23.262Z,3.60
2024-04-18T09:47:50.873Z,2.90
2024-04-18T09:50:18.619Z,3.10
2024-04-18T09:52:46.370Z,2.80
2024-04-18T09:55:14.720Z,2.90
2024-04-18T09:57:43.875Z,2.90
2024-04-18T10:00:12.090Z,3.00
2024-04-18T10:02:39.792Z,3.20
2024-04-18T10:05:08.145Z,2.40
2024-04-18T10:07:35.738Z,3.00
2024-04-18T10:10:03.605Z,3.10
2024-04-18T10:12:35.497Z,2.70
2024-04-18T10:15:03.499Z,2.50
2024-04-18T10:17:31.796Z,3.30
2024-04-18T10:20:03.406Z,3.90
2024-04-18T10:22:45.211Z,3.20
2024-04-18T10:25:21.790Z,2.50
2024-04-18T10:27:49.532Z,3.30
2024-04-18T10:30:20.135Z,3.40
2024-04-18T10:32:49.445Z,3.40
2024-04-18T10:35:17.852Z,4.10
2024-04-18T10:37:52.034Z,3.10
2024-04-18T10:40:19.641Z,3.30
2024-04-18T10:42:47.312Z,4.40
2024-04-18T10:45:16.603Z,3.30
2024-04-18T10:47:45.112Z,3.50
2024-04-18T10:50:12.630Z,3.30
2024-04-18T10:52:40.173Z,3.60
2024-04-18T10:55:07.838Z,3.80
2024-04-18T10:57:35.390Z,3.40
2024-04-18T11:00:03.084Z,3.90
2024-04-18T11:02:33.802Z,3.00
2024-04-18T11:05:01.591Z,3.40
2024-04-18T11:07:49.115Z,3.10
2024-04-18T11:10:16.858Z,4.80
2024-04-18T11:12:44.420Z,3.60
2024-04-18T11:15:12.061Z,3.30
2024-04-18T11:17:39.653Z,4.40
2024-04-18T11:20:11.285Z,7.10
2024-04-18T11:22:39.257Z,6.00
2024-04-18T11:25:10.340Z,4.70
2024-04-18T11:30:07.500Z,5.50
2024-04-18T11:32:35.160Z,4.50
2024-04-18T11:35:11.311Z,3.30
2024-04-18T11:37:43.196Z,2.30
2024-04-18T11:40:11.127Z,4.10
2024-04-18T11:42:38.713Z,3.50
2024-04-18T11:45:07.609Z,2.70
2024-04-18T11:47:35.461Z,2.80
2024-04-18T11:50:03.140Z,3.70
2024-04-18T11:52:30.733Z,3.30
2024-04-18T11:54:58.286Z,2.70
2024-04-18T11:57:38.101Z,2.20
2024-04-18T12:00:06.324Z,3.00
2024-04-18T12:02:54.209Z,2.40
2024-04-18T12:05:24.647Z,2.80
2024-04-18T12:07:55.978Z,3.00
2024-04-18T12:10:32.417Z,3.20
2024-04-18T12:13:05.686Z,2.90
2024-04-18T12:15:36.798Z,3.00
2024-04-18T12:20:48.456Z,3.50
2024-04-18T12:23:35.501Z,3.20
2024-04-18T12:26:05.629Z,3.40
2024-04-18T12:28:45.211Z,3.20
2024-04-18T12:31:12.864Z,3.50
2024-04-18T12:33:49.769Z,3.00
2024-04-18T12:36:18.348Z,3.10
2024-04-18T12:38:46.026Z,3.80
2024-04-18T12:41:14.039Z,3.00
2024-04-18T12:43:41.713Z,3.00
2024-04-18T12:46:28.141Z,3.50
2024-04-18T12:48:57.482Z,3.90
2024-04-18T12:51:25.594Z,3.40
2024-04-18T12:53:54.786Z,4.40
2024-04-18T12:56:41.978Z,4.30
2024-04-18T12:59:27.607Z,4.20
2024-04-18T13:01:55.152Z,4.40
2024-04-18T13:04:23.065Z,4.20
2024-04-18T13:06:50.999Z,5.30
2024-04-18T13:09:34.099Z,4.90
2024-04-18T13:12:05.211Z,4.90
2024-04-18T13:14:51.725Z,4.90
2024-04-18T13:17:19.639Z,4.10
2024-04-18T13:19:47.427Z,4.20
2024-04-18T13:22:18.165Z,4.60
2024-04-18T13:24:46.128Z,4.70
2024-04-18T13:27:32.534Z,4.60
2024-04-18T13:30:00.584Z,4.30
2024-04-18T13:32:35.572Z,4.90
2024-04-18T13:35:03.388Z,4.60
2024-04-18T13:37:30.895Z,5.10
2024-04-18T13:40:17.031Z,4.50
2024-04-18T13:42:57.820Z,4.70
2024-04-18T13:45:31.883Z,4.40
2024-04-18T13:48:00.657Z,4.70
2024-04-18T13:50:48.042Z,4.10
2024-04-18T13:53:16.972Z,4.80
2024-04-18T13:55:50.010Z,4.10
2024-04-18T13:58:19.106Z,5.10
2024-04-18T14:00:59.650Z,4.40
2024-04-18T14:03:31.947Z,5.00
2024-04-18T14:06:09.352Z,3.70
2024-04-18T14:08:38.058Z,3.90
2024-04-18T14:11:27.517Z,4.50
2024-04-18T14:14:08.643Z,4.20
2024-04-18T14:16:55.827Z,5.70
2024-04-18T14:19:33.219Z,4.70
2024-04-18T14:22:07.545Z,3.70
2024-04-18T14:24:36.520Z,3.90
2024-04-18T14:27:04.297Z,3.30
2024-04-18T14:29:31.942Z,4.20
2024-04-18T14:32:02.946Z,3.10
2024-04-18T14:34:49.091Z,3.20
2024-04-18T14:37:19.798Z,2.90
2024-04-18T14:39:48.010Z,3.90
2024-04-18T14:42:15.798Z,3.10
2024-04-18T14:44:43.623Z,3.20
2024-04-18T14:47:17.323Z,3.10
2024-04-18T14:50:01.800Z,2.80
2024-04-18T14:52:35.275Z,2.90
2024-04-18T14:55:28.347Z,3.00
2024-04-18T14:58:15.853Z,3.20
2024-04-18T15:00:50.497Z,3.20
2024-04-18T15:03:18.804Z,3.30
2024-04-18T15:05:53.880Z,3.10
2024-04-18T15:08:41.027Z,3.70
2024-04-18T15:11:23.590Z,4.00
2024-04-18T15:14:06.760Z,3.80
2024-04-18T15:16:34.555Z,3.10
2024-04-18T15:19:02.342Z,3.60
2024-04-18T15:21:50.119Z,3.90
2024-04-18T15:24:18.067Z,4.00
2024-04-18T15:27:04.231Z,3.80
2024-04-18T15:29:32.341Z,3.90
2024-04-18T15:32:20.836Z,3.70
2024-04-18T15:34:48.637Z,4.20
2024-04-18T15:37:34.751Z,4.20
2024-04-18T15:40:02.422Z,3.70
2024-04-18T15:42:30.003Z,3.50
2024-04-18T15:45:00.737Z,3.50
2024-04-18T15:50:18.331Z,3.10
2024-04-18T15:52:46.093Z,3.20
2024-04-18T15:55:30.287Z,3.20
2024-04-18T15:58:18.390Z,4.10
2024-04-18T16:00:45.994Z,2.60
2024-04-18T16:03:34.860Z,3.40
2024-04-18T16:06:22.713Z,3.10
2024-04-18T16:09:09.151Z,3.70
2024-04-18T16:11:40.418Z,2.40
2024-04-18T16:14:28.728Z,3.20
2024-04-18T16:16:56.508Z,2.90
2024-04-18T16:19:39.310Z,2.90
2024-04-18T16:22:06.978Z,3.70
2024-04-18T16:24:49.610Z,3.10
2024-04-18T16:27:17.426Z,3.40
2024-04-18T16:30:00.575Z,3.30
2024-04-18T16:32:45.270Z,3.00
2024-04-18T16:35:12.833Z,3.40
2024-04-18T16:37:41.841Z,2.90
2024-04-18T16:40:16.058Z,3.80
2024-04-18T16:42:59.822Z,3.50
2024-04-18T16:45:27.382Z,4.70
2024-04-18T16:47:55.101Z,3.90
2024-04-18T16:50:22.740Z,3.70
2024-04-18T16:52:50.899Z,3.70
2024-04-18T16:55:36.912Z,3.20
2024-04-18T16:58:17.075Z,3.50
2024-04-18T17:00:59.944Z,3.20
2024-04-18T17:03:27.840Z,3.30
2024-04-18T17:06:02.618Z,3.20
2024-04-18T17:08:30.522Z,3.30
2024-04-18T17:10:58.030Z,3.30
2024-04-18T17:13:44.141Z,3.80
2024-04-18T17:16:12.150Z,3.50
2024-04-18T17:18:49.184Z,3.50
2024-04-18T17:21:16.845Z,3.10
2024-04-18T17:23:44.512Z,4.20
2024-04-18T17:26:12.064Z,3.90
2024-04-18T17:28:39.838Z,3.50
2024-04-18T17:31:07.721Z,3.50
2024-04-18T17:33:35.629Z,3.70
2024-04-18T17:36:04.043Z,3.80
2024-04-18T17:38:47.354Z,3.60
2024-04-18T17:41:30.923Z,4.10
2024-04-18T17:44:27.660Z,4.00
2024-04-18T17:46:59.362Z,4.10
2024-04-18T17:49:27.245Z,4.00
2024-04-18T17:51:55.192Z,3.60
2024-04-18T17:54:22.955Z,3.30
2024-04-18T17:56:51.291Z,3.20
2024-04-18T17:59:20.185Z,3.20
2024-04-18T18:01:47.680Z,3.00
2024-04-18T18:04:15.453Z,3.10
2024-04-18T18:06:43.148Z,2.80
2024-04-18T18:09:10.825Z,2.60
2024-04-18T18:11:38.521Z,3.00
2024-04-18T18:14:06.187Z,2.80
2024-04-18T18:16:52.296Z,3.60
2024-04-18T18:19:20.006Z,4.10
2024-04-18T18:21:56.555Z,3.10
2024-04-18T18:24:24.190Z,3.30
2024-04-18T18:26:51.697Z,3.60
2024-04-18T18:29:19.354Z,3.80
2024-04-18T18:32:13.910Z,4.00
2024-04-18T18:34:48.657Z,3.90
2024-04-18T18:37:16.331Z,3.90
2024-04-18T18:39:44.010Z,4.30
2024-04-18T18:42:12.165Z,3.50
2024-04-18T18:44:40.188Z,2.90
2024-04-18T18:47:07.784Z,3.50
2024-04-18T18:49:50.486Z,4.10
2024-04-18T18:52:20.080Z,3.10
2024-04-18T18:54:47.854Z,3.70
2024-04-18T18:57:15.442Z,3.10
2024-04-18T18:59:43.941Z,3.40
2024-04-18T19:02:11.665Z,3.30
2024-04-18T19:04:57.972Z,3.20
2024-04-18T19:07:25.530Z,3.30
2024-04-18T19:09:53.563Z,3.40
2024-04-18T19:12:21.219Z,4.60
2024-04-18T19:14:48.942Z,3.40
2024-04-18T19:17:18.036Z,3.60
2024-04-18T19:19:46.459Z,3.20
2024-04-18T19:22:14.095Z,4.50
2024-04-18T19:24:41.763Z,3.60
2024-04-18T19:27:09.410Z,3.40
2024-04-18T19:29:44.839Z,4.10
2024-04-18T19:32:16.783Z,3.60
2024-04-18T19:34:44.528Z,3.90
2024-04-18T19:37:12.039Z,3.50
2024-04-18T19:39:40.005Z,4.10
2024-04-18T19:42:07.671Z,3.70
2024-04-18T19:44:35.459Z,3.10
2024-04-18T19:47:04.290Z,3.30
2024-04-18T19:49:37.740Z,3.50
2024-04-18T19:52:08.150Z,3.50
2024-04-18T19:54:36.515Z,3.20
2024-04-18T19:57:04.971Z,3.30
2024-04-18T19:59:32.665Z,3.50
2024-04-18T20:02:00.230Z,3.90
2024-04-18T20:04:27.928Z,3.90
2024-04-18T20:06:55.515Z,3.20
2024-04-18T20:09:23.068Z,3.70
2024-04-18T20:11:50.630Z,3.70
2024-04-18T20:14:21.054Z,3.70
2024-04-18T20:16:48.598Z,3.00
2024-04-18T20:19:16.775Z,3.90
2024-04-18T20:21:44.967Z,3.20
2024-04-18T20:24:14.271Z,3.60
2024-04-18T20:27:00.593Z,3.10
2024-04-18T20:29:46.520Z,4.20
2024-04-18T20:32:26.496Z,4.10
2024-04-18T20:34:54.288Z,3.90
2024-04-18T20:37:22.371Z,4.10
2024-04-18T20:39:50.357Z,4.10
2024-04-18T20:42:18.392Z,3.70
2024-04-18T20:45:01.980Z,4.10
2024-04-18T20:47:29.605Z,4.00
2024-04-18T20:49:57.242Z,4.00
2024-04-18T20:52:24.856Z,4.00
2024-04-18T20:54:52.428Z,3.50
2024-04-18T20:57:19.812Z,4.50
2024-04-18T20:59:47.466Z,4.00
2024-04-18T21:02:15.028Z,4.70
2024-04-18T21:04:42.637Z,4.00
2024-04-18T21:07:10.077Z,5.00
2024-04-18T21:09:37.675Z,4.40
2024-04-18T21:12:05.615Z,4.40
2024-04-18T21:14:33.030Z,5.60
2024-04-18T21:17:00.423Z,4.40
2024-04-18T21:19:28.279Z,4.40
2024-04-18T21:21:55.735Z,4.40
2024-04-18T21:24:23.146Z,4.10
2024-04-18T21:26:50.550Z,3.70
2024-04-18T21:29:18.059Z,3.60
2024-04-18T21:31:45.489Z,3.90
2024-04-18T21:34:12.959Z,4.20
2024-04-18T21:36:40.476Z,3.40
2024-04-18T21:39:08.047Z,3.60
2024-04-18T21:41:35.735Z,3.40
2024-04-18T21:44:03.193Z,3.90
2024-04-18T21:46:30.570Z,4.40
2024-04-18T21:48:58.169Z,3.40
2024-04-18T21:51:25.719Z,3.60
2024-04-18T21:53:53.317Z,5.00
2024-04-18T21:56:20.676Z,3.70
2024-04-18T21:58:51.620Z,3.40
2024-04-18T22:01:37.378Z,3.70
2024-04-18T22:04:05.114Z,3.20
2024-04-18T22:06:33.775Z,4.10
2024-04-18T22:09:01.209Z,3.30
2024-04-18T22:11:28.729Z,3.10
2024-04-18T22:13:56.933Z,2.60
2024-04-18T22:16:24.338Z,2.60
2024-04-18T22:18:52.211Z,2.40
2024-04-18T22:21:37.768Z,2.00
2024-04-18T22:24:05.919Z,1.70
2024-04-18T22:26:33.785Z,2.20
2024-04-18T22:29:01.327Z,2.00
2024-04-18T22:31:29.290Z,1.90
2024-04-18T22:33:56.784Z,1.40
2024-04-18T22:36:26.276Z,1.70
2024-04-18T22:38:53.774Z,1.60
2024-04-18T22:41:21.430Z,1.70
2024-04-18T22:43:48.822Z,1.60
2024-04-18T22:46:16.297Z,1.20
2024-04-18T22:48:43.760Z,1.50
2024-04-18T22:51:11.219Z,1.70
2024-04-18T22:53:38.704Z,1.80
2024-04-18T22:56:06.258Z,1.90
2024-04-18T22:58:33.665Z,1.50
2024-04-18T23:01:04.556Z,2.10
2024-04-18T23:03:32.202Z,1.70
2024-04-18T23:06:15.205Z,1.50
2024-04-18T23:08:43.284Z,1.50
2024-04-18T23:11:10.946Z,1.50
2024-04-18T23:13:38.468Z,1.80
2024-04-18T23:16:06.196Z,1.40
2024-04-18T23:18:33.929Z,2.00
2024-04-18T23:21:01.423Z,2.00
2024-04-18T23:23:34.876Z,2.30
2024-04-18T23:26:03.208Z,2.50
2024-04-18T23:28:30.644Z,2.60
2024-04-18T23:30:58.045Z,2.50
2024-04-18T23:33:25.631Z,2.60
2024-04-18T23:35:53.098Z,2.60
2024-04-18T23:38:20.722Z,2.20
2024-04-18T23:40:48.506Z,2.60
2024-04-18T23:43:15.911Z,2.00
2024-04-18T23:45:43.656Z,1.70
2024-04-18T23:48:12.972Z,1.90
2024-04-18T23:50:42.172Z,1.80
2024-04-18T23:53:09.538Z,2.00
2024-04-18T23:55:37.290Z,1.50
2024-04-18T23:58:04.903Z,1.40
